Time;durP1;ratioP1;P1;durP2;ratioP2;P2;SDS_P1;SDS_P2;PMS_P1;PMS_P2;Temp;Humidity;BMP_temperature;BMP_pressure;BME280_temperature;BME280_humidity;BME280_pressure;Samples;Min_cycle;Max_cycle;Signal;HPM_P1;HPM_P2
2023/09/26 00:02:25;;;;;;;15.60;3.90;;;;;;;14.12;100.00;100679.50;5078368;28;20059;-65
2023/09/26 00:04:52;;;;;;;15.73;3.35;;;;;;;14.10;100.00;100678.75;5068129;28;20051;-65
2023/09/26 00:07:19;;;;;;;14.75;3.67;;;;;;;14.02;100.00;100666.84;5069065;28;20072;-65
2023/09/26 00:09:45;;;;;;;15.10;3.72;;;;;;;14.10;100.00;100684.00;5079508;28;20052;-65
2023/09/26 00:12:12;;;;;;;10.38;2.60;;;;;;;14.10;100.00;100687.47;5073808;28;20121;-65
2023/09/26 00:14:39;;;;;;;14.85;3.13;;;;;;;14.04;100.00;100687.78;5068101;28;20445;-65
2023/09/26 00:17:06;;;;;;;23.05;5.13;;;;;;;13.94;100.00;100690.06;5068397;28;20052;-65
2023/09/26 00:19:33;;;;;;;16.27;3.90;;;;;;;14.03;100.00;100699.28;5053114;28;20493;-65
2023/09/26 00:21:59;;;;;;;16.67;3.90;;;;;;;14.09;100.00;100693.66;5066612;28;20082;-65
2023/09/26 00:24:26;;;;;;;15.90;3.67;;;;;;;14.08;100.00;100699.00;5068671;28;20048;-66
2023/09/26 00:26:53;;;;;;;11.00;3.10;;;;;;;14.11;100.00;100697.09;5065755;28;20052;-65
2023/09/26 00:29:19;;;;;;;16.45;3.15;;;;;;;14.08;100.00;100696.38;5067137;28;20654;-65
2023/09/26 00:31:50;;;;;;;26.25;4.70;;;;;;;14.00;100.00;100687.09;5067889;28;20071;-65
2023/09/26 00:34:17;;;;;;;19.00;3.75;;;;;;;14.09;100.00;100690.19;5066846;28;20048;-65
2023/09/26 00:36:44;;;;;;;20.75;4.95;;;;;;;13.99;100.00;100695.13;5056096;28;20048;-65
2023/09/26 00:39:11;;;;;;;15.60;3.42;;;;;;;13.90;100.00;100680.66;5066499;28;20137;-66
2023/09/26 00:41:39;;;;;;;24.17;4.32;;;;;;;13.98;100.00;100694.25;5066768;28;20048;-65
2023/09/26 00:44:07;;;;;;;15.18;3.67;;;;;;;13.96;100.00;100697.91;5068497;28;20086;-65
2023/09/26 00:46:35;;;;;;;16.90;3.40;;;;;;;13.96;100.00;100696.09;5071582;28;20040;-65
2023/09/26 00:49:01;;;;;;;20.35;4.85;;;;;;;13.86;100.00;100681.72;5070001;28;20060;-65
2023/09/26 00:51:31;;;;;;;23.00;4.38;;;;;;;13.86;100.00;100689.63;5067159;28;20060;-66
2023/09/26 00:53:59;;;;;;;22.20;5.25;;;;;;;13.89;100.00;100681.56;5071767;28;20055;-66
2023/09/26 00:56:26;;;;;;;20.30;5.85;;;;;;;13.89;100.00;100688.63;5066106;28;20064;-65
2023/09/26 00:58:53;;;;;;;24.25;5.78;;;;;;;13.93;100.00;100683.09;5068034;28;20048;-65
2023/09/26 01:01:24;;;;;;;21.92;5.55;;;;;;;13.92;100.00;100685.84;5065331;28;20060;-64
2023/09/26 01:03:52;;;;;;;24.33;6.20;;;;;;;13.83;100.00;100688.00;5078883;28;20051;-65
2023/09/26 01:06:19;;;;;;;29.38;6.72;;;;;;;13.82;100.00;100688.94;5069969;28;20049;-65
2023/09/26 01:08:46;;;;;;;23.10;6.13;;;;;;;13.89;100.00;100704.41;5066060;28;20064;-64
2023/09/26 01:11:13;;;;;;;19.48;4.68;;;;;;;13.88;100.00;100702.69;5064029;28;20060;-64
2023/09/26 01:13:40;;;;;;;29.45;5.55;;;;;;;13.87;100.00;100704.50;5068440;28;20055;-65
2023/09/26 01:16:17;;;;;;;20.83;4.88;;;;;;;13.82;100.00;100701.25;5074244;28;20056;-64
2023/09/26 01:18:45;;;;;;;27.67;5.82;;;;;;;13.85;100.00;100693.19;5063825;28;20859;-64
2023/09/26 01:21:13;;;;;;;29.30;6.22;;;;;;;13.84;100.00;100694.94;5065485;28;20079;-64
2023/09/26 01:23:41;;;;;;;31.88;7.18;;;;;;;13.74;100.00;100685.00;5067866;28;20059;-64
2023/09/26 01:26:08;;;;;;;32.00;6.72;;;;;;;13.80;100.00;100696.06;5068202;28;20139;-64
2023/09/26 01:28:36;;;;;;;27.98;6.07;;;;;;;13.83;100.00;100684.53;5068315;28;20056;-65
2023/09/26 01:31:03;;;;;;;30.85;5.57;;;;;;;13.78;100.00;100689.19;5066850;28;20055;-64
2023/09/26 01:33:30;;;;;;;34.35;5.55;;;;;;;13.75;100.00;100684.91;5069790;28;20062;-64
2023/09/26 01:35:56;;;;;;;25.65;4.80;;;;;;;13.77;100.00;100677.78;5060492;28;20044;-65
2023/09/26 01:38:23;;;;;;;21.17;5.45;;;;;;;13.70;100.00;100676.41;5073474;28;20055;-64
2023/09/26 01:40:50;;;;;;;28.80;5.20;;;;;;;13.70;100.00;100657.13;5069391;28;20045;-65
2023/09/26 01:43:18;;;;;;;22.08;5.22;;;;;;;13.75;100.00;100661.22;5056346;28;20052;-64
2023/09/26 01:45:44;;;;;;;24.00;5.70;;;;;;;13.82;100.00;100669.66;5069597;28;20061;-64
2023/09/26 01:48:12;;;;;;;24.98;5.28;;;;;;;13.78;100.00;100666.34;5070220;28;20060;-64
2023/09/26 01:50:40;;;;;;;28.95;5.45;;;;;;;13.73;100.00;100660.47;5080212;28;20052;-64
2023/09/26 01:53:08;;;;;;;27.98;6.35;;;;;;;13.82;100.00;100661.78;5060120;28;20063;-64
2023/09/26 01:55:38;;;;;;;26.15;5.72;;;;;;;13.78;100.00;100662.88;5054597;28;20060;-65
2023/09/26 01:58:05;;;;;;;25.30;6.00;;;;;;;13.75;100.00;100653.34;5060121;28;20056;-65
2023/09/26 02:00:32;;;;;;;34.38;6.35;;;;;;;13.73;100.00;100644.69;5068919;28;20052;-65
2023/09/26 02:02:58;;;;;;;21.60;5.57;;;;;;;13.85;100.00;100637.94;5070724;28;20062;-65
2023/09/26 02:05:25;;;;;;;39.80;6.55;;;;;;;13.79;100.00;100638.25;5074343;28;20402;-65
2023/09/26 02:07:52;;;;;;;32.00;7.20;;;;;;;13.79;100.00;100636.47;5068496;28;20048;-64
2023/09/26 02:10:19;;;;;;;27.23;6.40;;;;;;;13.86;100.00;100631.72;5055915;28;20079;-65
2023/09/26 02:12:51;;;;;;;26.02;5.25;;;;;;;13.91;100.00;100623.59;5069840;28;20052;-65
2023/09/26 02:15:18;;;;;;;22.02;5.63;;;;;;;13.95;100.00;100628.63;5072087;28;20091;-65
2023/09/26 02:17:45;;;;;;;32.72;7.43;;;;;;;13.83;100.00;100626.63;5069216;28;20394;-65
2023/09/26 02:20:15;;;;;;;28.77;7.47;;;;;;;13.85;100.00;100630.03;5066635;28;20139;-65
2023/09/26 02:22:44;;;;;;;32.58;6.93;;;;;;;13.77;100.00;100625.16;5069318;28;20094;-65
2023/09/26 02:25:12;;;;;;;27.80;6.43;;;;;;;13.80;100.00;100630.25;5064096;28;20068;-65
2023/09/26 02:27:41;;;;;;;27.73;5.60;;;;;;;13.72;100.00;100627.19;5058084;28;20043;-65
2023/09/26 02:30:10;;;;;;;27.30;5.82;;;;;;;13.76;100.00;100623.47;5069165;28;20056;-65
2023/09/26 02:32:37;;;;;;;28.17;5.75;;;;;;;13.80;100.00;100629.44;5070537;28;20494;-65
2023/09/26 02:35:06;;;;;;;31.85;7.22;;;;;;;13.77;100.00;100625.16;5069015;28;20059;-65
2023/09/26 02:37:32;;;;;;;38.42;6.55;;;;;;;13.77;100.00;100627.78;5068726;28;20068;-65
2023/09/26 02:40:00;;;;;;;27.63;6.05;;;;;;;13.93;100.00;100632.25;5068644;28;20052;-65
2023/09/26 02:42:27;;;;;;;29.60;6.15;;;;;;;13.83;100.00;100632.75;5062479;28;20067;-64
2023/09/26 02:44:54;;;;;;;27.88;6.07;;;;;;;13.84;100.00;100636.22;5074710;28;20044;-65
2023/09/26 02:47:20;;;;;;;28.38;7.35;;;;;;;13.86;100.00;100639.63;5068494;28;20517;-65
2023/09/26 02:49:47;;;;;;;34.50;6.97;;;;;;;13.73;100.00;100641.19;5069065;28;20055;-65
2023/09/26 02:52:14;;;;;;;24.48;6.70;;;;;;;13.80;100.00;100637.31;5069006;28;20513;-65
2023/09/26 02:54:41;;;;;;;39.67;7.47;;;;;;;13.72;100.00;100629.81;5069972;28;20462;-65
2023/09/26 02:57:07;;;;;;;25.83;6.70;;;;;;;13.79;100.00;100640.88;5068243;28;20048;-65
2023/09/26 02:59:35;;;;;;;29.90;5.82;;;;;;;13.83;100.00;100632.75;5068406;28;20084;-65
2023/09/26 03:02:02;;;;;;;27.15;5.38;;;;;;;13.86;100.00;100629.97;5072854;28;20048;-65
2023/09/26 03:04:29;;;;;;;17.50;5.00;;;;;;;13.72;100.00;100616.66;5072791;28;20138;-65
2023/09/26 03:06:56;;;;;;;20.15;5.72;;;;;;;13.75;100.00;100619.13;5072253;28;20047;-65
2023/09/26 03:09:22;;;;;;;26.60;5.22;;;;;;;13.69;100.00;100622.09;5071325;28;20080;-65
2023/09/26 03:11:49;;;;;;;20.95;4.95;;;;;;;13.76;100.00;100614.75;5072154;28;20406;-65
2023/09/26 03:14:19;;;;;;;20.10;6.20;;;;;;;13.73;100.00;100618.38;5069341;28;20490;-66
2023/09/26 03:16:46;;;;;;;18.20;4.95;;;;;;;13.64;100.00;100609.16;5071331;28;20052;-66
2023/09/26 03:19:16;;;;;;;19.52;4.70;;;;;;;13.58;100.00;100603.38;5066447;28;20509;-65
2023/09/26 03:21:43;;;;;;;23.42;6.22;;;;;;;13.59;100.00;100595.41;5066603;28;20048;-65
2023/09/26 03:24:10;;;;;;;23.73;6.13;;;;;;;13.45;100.00;100588.22;5069170;28;20041;-65
2023/09/26 03:26:36;;;;;;;27.35;5.85;;;;;;;13.40;100.00;100592.03;5070555;28;20044;-65
2023/09/26 03:29:03;;;;;;;18.23;4.00;;;;;;;13.48;100.00;100601.22;5067474;28;20055;-65
2023/09/26 03:31:30;;;;;;;35.78;7.88;;;;;;;13.37;100.00;100597.44;5072636;28;20044;-65
2023/09/26 03:33:57;;;;;;;19.55;4.22;;;;;;;13.50;100.00;100611.66;5075216;28;20056;-65
2023/09/26 03:36:24;;;;;;;22.05;5.80;;;;;;;13.45;100.00;100597.91;5071048;28;20099;-64
2023/09/26 03:38:50;;;;;;;25.30;6.10;;;;;;;13.50;100.00;100609.03;5069306;28;20048;-65
2023/09/26 03:41:17;;;;;;;22.20;5.38;;;;;;;13.45;100.00;100593.50;5070427;28;20052;-65
2023/09/26 03:43:44;;;;;;;28.67;5.32;;;;;;;13.51;100.00;100599.38;5071589;28;20067;-64
2023/09/26 03:46:10;;;;;;;23.98;5.47;;;;;;;13.52;100.00;100598.44;5070233;28;20067;-64
2023/09/26 03:48:37;;;;;;;32.13;6.90;;;;;;;13.49;100.00;100586.28;5075196;28;20552;-64
2023/09/26 03:51:11;;;;;;;23.90;5.28;;;;;;;13.53;100.00;100586.97;5071151;28;20049;-65
2023/09/26 03:53:39;;;;;;;31.52;5.95;;;;;;;13.48;100.00;100574.94;5084056;28;20070;-64
2023/09/26 03:56:06;;;;;;;33.65;7.55;;;;;;;13.43;100.00;100571.69;5069957;28;20048;-64
2023/09/26 03:58:34;;;;;;;34.63;6.45;;;;;;;13.46;100.00;100568.91;5071101;28;20486;-64
2023/09/26 04:01:11;;;;;;;32.40;7.25;;;;;;;13.46;100.00;100558.38;5075743;28;20502;-65
2023/09/26 04:03:40;;;;;;;24.65;4.95;;;;;;;13.40;100.00;100561.34;5070134;28;20098;-65
2023/09/26 04:06:07;;;;;;;32.95;6.72;;;;;;;13.50;100.00;100542.44;5070553;28;20131;-65
2023/09/26 04:08:34;;;;;;;29.77;6.70;;;;;;;13.38;100.00;100549.19;5071275;28;20040;-65
2023/09/26 04:11:01;;;;;;;23.50;5.95;;;;;;;13.48;100.00;100543.38;5068934;28;20059;-65
2023/09/26 04:13:27;;;;;;;34.05;6.53;;;;;;;13.38;100.00;100536.03;5069516;28;20486;-64
2023/09/26 04:15:54;;;;;;;28.25;5.90;;;;;;;13.38;100.00;100541.31;5069359;28;20059;-64
2023/09/26 04:18:25;;;;;;;25.88;5.85;;;;;;;13.35;100.00;100541.47;5067801;28;20462;-64
2023/09/26 04:20:52;;;;;;;34.60;6.85;;;;;;;13.41;100.00;100533.25;5084013;28;20045;-65
2023/09/26 04:23:19;;;;;;;25.85;5.75;;;;;;;13.42;100.00;100525.28;5070906;28;20501;-64
2023/09/26 04:25:45;;;;;;;28.02;7.38;;;;;;;13.40;100.00;100532.41;5060333;28;20048;-65
2023/09/26 04:28:12;;;;;;;28.17;6.53;;;;;;;13.52;100.00;100533.53;5062731;28;20466;-65
2023/09/26 04:30:39;;;;;;;26.40;5.65;;;;;;;13.50;100.00;100531.94;5064898;28;20051;-65
2023/09/26 04:33:08;;;;;;;23.42;5.50;;;;;;;13.58;100.00;100524.47;5069909;28;20059;-65
2023/09/26 04:35:36;;;;;;;30.02;6.45;;;;;;;13.45;100.00;100519.84;5069728;28;20056;-65
2023/09/26 04:38:03;;;;;;;28.73;7.05;;;;;;;13.46;100.00;100502.31;5064331;28;20130;-65
2023/09/26 04:40:31;;;;;;;39.20;7.32;;;;;;;13.39;100.00;100493.06;5067164;28;20139;-65
2023/09/26 04:43:05;;;;;;;25.90;5.88;;;;;;;13.39;100.00;100495.69;5072134;28;20048;-65
2023/09/26 04:45:32;;;;;;;26.40;6.13;;;;;;;13.51;100.00;100507.31;5062900;28;20048;-65
2023/09/26 04:48:00;;;;;;;19.83;4.97;;;;;;;13.59;100.00;100510.38;5068551;28;20048;-65
2023/09/26 04:50:28;;;;;;;22.95;5.47;;;;;;;13.56;100.00;100505.28;5069181;28;20161;-65
2023/09/26 04:52:56;;;;;;;41.85;7.05;;;;;;;13.47;100.00;100502.22;5068893;28;20048;-65
2023/09/26 04:55:23;;;;;;;27.23;6.32;;;;;;;13.53;100.00;100500.19;5075747;28;20045;-65
2023/09/26 04:57:50;;;;;;;21.80;5.15;;;;;;;13.59;100.00;100503.34;5068257;28;20048;-65
2023/09/26 05:00:17;;;;;;;30.83;7.55;;;;;;;13.55;100.00;100488.66;5068240;28;20489;-65
2023/09/26 05:02:45;;;;;;;27.73;6.80;;;;;;;13.57;100.00;100497.31;5068167;28;20542;-65
2023/09/26 05:05:12;;;;;;;25.73;6.05;;;;;;;13.66;100.00;100496.81;5073062;28;20235;-65
2023/09/26 05:07:43;;;;;;;30.60;6.35;;;;;;;13.47;100.00;100490.84;5068967;28;20143;-65
2023/09/26 05:10:12;;;;;;;24.60;5.05;;;;;;;13.57;100.00;100485.94;5068172;28;20044;-65
2023/09/26 05:12:42;;;;;;;30.50;7.15;;;;;;;13.56;100.00;100479.81;5070525;28;20143;-65
2023/09/26 05:15:14;;;;;;;39.13;7.57;;;;;;;13.44;100.00;100485.78;5067634;28;20091;-65
2023/09/26 05:17:47;;;;;;;27.65;6.28;;;;;;;13.57;100.00;100491.22;5068283;28;20418;-65
2023/09/26 05:20:15;;;;;;;24.38;5.32;;;;;;;13.44;100.00;100485.78;5069667;28;20060;-64
2023/09/26 05:22:47;;;;;;;43.42;8.65;;;;;;;13.29;100.00;100477.72;5069011;28;20052;-65
2023/09/26 05:25:14;;;;;;;27.30;5.88;;;;;;;13.39;100.00;100487.78;5070190;28;20056;-65
2023/09/26 05:27:43;;;;;;;25.92;5.88;;;;;;;13.56;100.00;100498.22;5065783;28;20044;-64
2023/09/26 05:30:12;;;;;;;30.40;5.85;;;;;;;13.45;100.00;100490.91;5057302;28;20202;-65
2023/09/26 05:32:40;;;;;;;28.42;6.28;;;;;;;13.50;100.00;100477.53;5068690;28;20463;-65
2023/09/26 05:35:08;;;;;;;22.48;4.88;;;;;;;13.45;100.00;100469.03;5057229;28;20195;-64
2023/09/26 05:37:36;;;;;;;28.85;6.00;;;;;;;13.51;100.00;100475.75;5055397;28;20090;-64
2023/09/26 05:40:09;;;;;;;26.92;5.93;;;;;;;13.46;100.00;100478.63;5064846;28;21219;-64
2023/09/26 05:42:37;;;;;;;24.55;6.70;;;;;;;13.38;100.00;100462.41;5053262;28;20480;-64
2023/09/26 05:45:06;;;;;;;33.17;7.60;;;;;;;13.34;100.00;100450.38;5059637;28;20045;-65
2023/09/26 05:47:34;;;;;;;21.58;5.60;;;;;;;13.46;100.00;100445.28;5066819;28;20048;-64
2023/09/26 05:50:06;;;;;;;34.20;6.95;;;;;;;13.38;100.00;100454.53;5067838;28;20044;-65
2023/09/26 05:52:33;;;;;;;25.23;5.65;;;;;;;13.43;100.00;100440.19;5073742;28;20048;-65
2023/09/26 05:55:00;;;;;;;24.77;6.22;;;;;;;13.35;100.00;100434.50;5052112;28;20127;-65
2023/09/26 05:57:29;;;;;;;31.67;5.85;;;;;;;13.20;100.00;100425.63;5067932;28;20044;-65
2023/09/26 05:59:56;;;;;;;34.65;7.05;;;;;;;13.13;100.00;100420.78;5065094;28;20067;-65
2023/09/26 06:02:22;;;;;;;21.55;5.45;;;;;;;13.28;100.00;100425.22;5057121;28;20045;-65
2023/09/26 06:04:50;;;;;;;29.60;6.57;;;;;;;13.20;100.00;100417.72;5061490;28;20629;-65
2023/09/26 06:07:17;;;;;;;23.88;4.90;;;;;;;13.26;100.00;100414.78;5055758;28;20059;-65
2023/09/26 06:09:44;;;;;;;20.73;4.80;;;;;;;13.27;100.00;100400.69;5060724;28;20052;-65
2023/09/26 06:12:30;;;;;;;31.45;5.47;;;;;;;13.30;100.00;100394.44;5057020;28;20060;-65
2023/09/26 06:14:57;;;;;;;27.67;6.90;;;;;;;13.21;100.00;100400.16;5058185;28;20488;-65
2023/09/26 06:17:24;;;;;;;28.52;6.57;;;;;;;13.25;100.00;100399.94;5065905;28;20052;-65
2023/09/26 06:19:50;;;;;;;28.05;7.13;;;;;;;13.39;100.00;100404.47;5053158;28;20044;-65
2023/09/26 06:22:17;;;;;;;32.97;7.05;;;;;;;13.35;100.00;100391.56;5066363;28;20056;-65
2023/09/26 06:24:44;;;;;;;37.08;8.18;;;;;;;13.37;100.00;100394.97;5070168;28;20106;-65
2023/09/26 06:27:11;;;;;;;37.85;7.32;;;;;;;13.44;100.00;100393.72;5058622;28;20331;-65
2023/09/26 06:29:41;;;;;;;30.90;7.22;;;;;;;13.51;100.00;100396.84;5062790;28;20539;-65
2023/09/26 06:32:09;;;;;;;23.25;5.55;;;;;;;13.51;100.00;100396.84;5063327;28;20047;-65
2023/09/26 06:34:39;;;;;;;39.25;7.47;;;;;;;13.61;100.00;100382.25;5064907;28;20051;-65
2023/09/26 06:37:06;;;;;;;29.50;7.22;;;;;;;13.62;100.00;100376.06;5072262;28;20048;-65
2023/09/26 06:39:33;;;;;;;36.90;7.57;;;;;;;13.67;100.00;100371.41;5065447;28;20493;-65
2023/09/26 06:42:00;;;;;;;39.05;7.40;;;;;;;13.74;100.00;100375.38;5058354;28;20049;-65
2023/09/26 06:44:28;;;;;;;37.30;8.27;;;;;;;13.66;100.00;100370.53;5054096;28;20047;-65
2023/09/26 06:46:55;;;;;;;31.15;6.60;;;;;;;13.76;100.00;100364.78;5067955;28;20490;-65
2023/09/26 06:49:22;;;;;;;34.13;6.47;;;;;;;13.67;100.00;100387.19;5066255;28;20032;-65
2023/09/26 06:51:49;;;;;;;35.42;7.25;;;;;;;13.77;100.00;100379.59;5057725;28;20456;-65
2023/09/26 06:54:16;;;;;;;27.45;6.40;;;;;;;13.80;100.00;100372.38;5070198;28;20070;-65
2023/09/26 06:56:42;;;;;;;28.55;6.03;;;;;;;13.88;100.00;100361.41;5070168;28;20056;-65
2023/09/26 06:59:09;;;;;;;29.73;6.30;;;;;;;13.79;100.00;100367.19;5065975;28;20383;-65
2023/09/26 07:01:36;;;;;;;29.55;6.85;;;;;;;13.85;100.00;100391.41;5066360;28;20072;-66
2023/09/26 07:04:04;;;;;;;33.33;7.95;;;;;;;13.85;100.00;100383.50;5068020;28;20052;-65
2023/09/26 07:06:31;;;;;;;34.47;6.45;;;;;;;14.15;100.00;100377.41;5073189;28;20078;-65
2023/09/26 07:08:58;;;;;;;26.70;7.10;;;;;;;14.29;100.00;100386.28;5070220;28;20037;-66
2023/09/26 07:11:26;;;;;;;27.60;6.72;;;;;;;14.63;100.00;100379.06;5061866;28;20154;-69
2023/09/26 07:13:53;;;;;;;27.00;6.50;;;;;;;14.60;100.00;100383.53;5060377;28;20057;-69
2023/09/26 07:16:20;;;;;;;29.52;6.88;;;;;;;14.61;100.00;100380.00;5049901;28;20049;-68
2023/09/26 07:18:47;;;;;;;40.05;8.05;;;;;;;14.71;100.00;100376.78;5061593;28;20045;-68
2023/09/26 07:21:14;;;;;;;24.70;5.40;;;;;;;15.13;100.00;100381.22;5055875;28;20056;-68
2023/09/26 07:23:40;;;;;;;34.88;7.78;;;;;;;14.90;100.00;100374.72;5075820;28;20044;-68
2023/09/26 07:26:09;;;;;;;27.85;7.88;;;;;;;15.22;100.00;100365.78;5052135;28;20505;-69
2023/09/26 07:28:41;;;;;;;29.83;7.50;;;;;;;15.26;100.00;100370.72;5054999;28;20398;-68
2023/09/26 07:31:11;;;;;;;32.03;6.22;;;;;;;15.17;100.00;100361.63;5052959;28;20064;-69
2023/09/26 07:33:39;;;;;;;27.00;6.95;;;;;;;15.61;100.00;100369.44;5054316;28;20045;-68
2023/09/26 07:36:07;;;;;;;36.85;7.47;;;;;;;15.50;100.00;100352.50;5069976;28;20060;-66
2023/09/26 07:38:34;;;;;;;36.67;6.90;;;;;;;15.66;100.00;100349.72;5066686;28;20055;-67
2023/09/26 07:41:01;;;;;;;22.45;5.70;;;;;;;15.99;100.00;100356.44;5063035;28;20045;-67
2023/09/26 07:43:34;;;;;;;33.03;7.47;;;;;;;16.16;100.00;100343.88;5066628;28;20058;-67
2023/09/26 07:46:12;;;;;;;25.67;6.30;;;;;;;15.99;100.00;100339.72;5068819;28;20127;-67
2023/09/26 07:48:40;;;;;;;25.00;5.35;;;;;;;16.27;100.00;100330.78;5069813;28;20052;-67
2023/09/26 07:51:09;;;;;;;25.13;6.18;;;;;;;16.17;100.00;100330.56;5069333;28;20526;-67
2023/09/26 07:53:40;;;;;;;35.28;7.40;;;;;;;16.13;100.00;100332.56;5069653;28;20530;-67
2023/09/26 07:56:07;;;;;;;28.63;6.57;;;;;;;16.29;100.00;100329.75;5067540;28;20056;-67
2023/09/26 07:58:34;;;;;;;29.15;7.13;;;;;;;16.17;100.00;100329.75;5065491;28;20052;-67
2023/09/26 08:01:06;;;;;;;28.92;6.53;;;;;;;16.21;100.00;100353.19;5058317;28;20048;-66
2023/09/26 08:03:34;;;;;;;27.75;6.90;;;;;;;16.42;100.00;100323.63;5062887;28;20532;-66
2023/09/26 08:06:03;;;;;;;24.23;5.00;;;;;;;16.42;100.00;100319.19;5068618;28;20044;-67
2023/09/26 08:08:30;;;;;;;26.00;5.82;;;;;;;16.65;100.00;100319.38;5065633;28;20044;-67
2023/09/26 08:11:11;;;;;;;31.25;6.90;;;;;;;16.38;100.00;100311.56;5066252;28;20048;-67
2023/09/26 08:13:42;;;;;;;22.02;5.85;;;;;;;16.50;100.00;100310.72;5068346;28;20084;-66
2023/09/26 08:16:09;;;;;;;24.92;5.70;;;;;;;16.46;100.00;100309.25;5069241;28;20055;-67
2023/09/26 08:18:37;;;;;;;20.30;5.63;;;;;;;15.92;100.00;100305.81;5068364;28;20071;-66
2023/09/26 08:21:04;;;;;;;19.58;5.97;;;;;;;15.85;100.00;100311.63;5069592;28;20403;-66
2023/09/26 08:23:31;;;;;;;28.25;5.95;;;;;;;16.05;100.00;100311.09;5069716;28;20664;-66
2023/09/26 08:26:06;;;;;;;34.88;8.18;;;;;;;16.28;100.00;100303.44;5064577;28;20048;-67
2023/09/26 08:28:34;;;;;;;19.13;5.72;;;;;;;16.58;100.00;100303.09;5069008;28;20058;-67
2023/09/26 08:31:07;;;;;;;24.13;5.88;;;;;;;16.79;100.00;100308.69;5069443;28;20135;-67
2023/09/26 08:33:36;;;;;;;22.73;6.43;;;;;;;16.97;100.00;100298.63;5068847;28;20060;-67
2023/09/26 08:36:12;;;;;;;23.05;6.15;;;;;;;17.05;100.00;100293.66;5069244;28;20048;-66
2023/09/26 08:38:39;;;;;;;23.52;6.22;;;;;;;16.84;100.00;100282.81;5067904;28;20076;-67
2023/09/26 08:41:07;;;;;;;31.48;6.20;;;;;;;16.77;100.00;100285.94;5069190;28;20502;-67
2023/09/26 08:43:35;;;;;;;31.77;6.88;;;;;;;16.62;100.00;100279.94;5069187;28;20052;-66
2023/09/26 08:46:04;;;;;;;23.50;5.68;;;;;;;16.62;100.00;100299.28;5071599;28;20049;-66
2023/09/26 08:48:33;;;;;;;29.85;6.97;;;;;;;16.59;100.00;100302.16;5068361;28;20052;-68
2023/09/26 08:51:02;;;;;;;30.65;6.60;;;;;;;16.71;100.00;100305.72;5062967;28;20071;-67
2023/09/26 08:53:29;;;;;;;31.80;7.00;;;;;;;16.81;100.00;100292.72;5056197;28;20433;-67
2023/09/26 08:55:57;;;;;;;17.92;5.43;;;;;;;16.75;100.00;100299.28;5065623;28;20102;-66
2023/09/26 08:58:25;;;;;;;29.20;5.75;;;;;;;16.54;100.00;100277.00;5072157;28;20466;-66
2023/09/26 09:00:52;;;;;;;21.45;5.40;;;;;;;16.53;100.00;100297.28;5063511;28;20049;-66
2023/09/26 09:03:19;;;;;;;21.67;5.60;;;;;;;16.51;100.00;100296.56;5062812;28;20490;-66
2023/09/26 09:05:45;;;;;;;23.08;5.97;;;;;;;16.40;100.00;100281.44;5060103;28;20577;-66
2023/09/26 09:08:19;;;;;;;17.05;5.00;;;;;;;16.49;100.00;100303.75;5063657;28;20049;-66
2023/09/26 09:10:53;;;;;;;29.13;5.80;;;;;;;16.51;100.00;100302.69;5054053;28;20107;-66
2023/09/26 09:13:27;;;;;;;23.02;6.28;;;;;;;16.02;100.00;100319.22;5063243;28;20049;-66
2023/09/26 09:16:24;;;;;;;25.98;6.45;;;;;;;16.40;100.00;100310.50;5067964;28;20079;-66
2023/09/26 09:18:57;;;;;;;23.52;5.53;;;;;;;16.69;100.00;100297.91;5053967;28;20051;-66
2023/09/26 09:21:31;;;;;;;24.10;5.63;;;;;;;16.65;100.00;100285.03;5063637;28;20098;-66
2023/09/26 09:24:00;;;;;;;28.80;6.43;;;;;;;16.59;100.00;100288.09;5049633;28;20048;-67
2023/09/26 09:26:33;;;;;;;26.83;6.10;;;;;;;16.48;100.00;100287.06;5054783;28;20084;-66
2023/09/26 09:29:17;;;;;;;24.38;5.40;;;;;;;16.59;100.00;100270.47;5056686;28;20047;-66
2023/09/26 09:31:44;;;;;;;25.60;6.82;;;;;;;16.31;100.00;100268.88;5053592;28;20051;-66
2023/09/26 09:34:11;;;;;;;26.00;6.07;;;;;;;16.27;100.00;100270.03;5064639;28;20464;-66
2023/09/26 09:36:38;;;;;;;25.92;5.93;;;;;;;16.35;100.00;100256.31;5065902;28;20558;-67
2023/09/26 09:39:09;;;;;;;23.63;5.78;;;;;;;16.19;100.00;100257.34;5069046;28;20410;-66
2023/09/26 09:41:37;;;;;;;27.00;6.07;;;;;;;16.35;100.00;100253.66;5066794;28;20055;-66
2023/09/26 09:44:05;;;;;;;25.58;5.35;;;;;;;16.26;100.00;100248.06;5056450;28;20053;-66
2023/09/26 09:46:38;;;;;;;28.42;6.05;;;;;;;16.07;100.00;100251.13;5067931;28;20052;-66
2023/09/26 09:49:20;;;;;;;26.60;6.43;;;;;;;16.26;100.00;100250.69;5057466;28;20053;-66
2023/09/26 09:51:47;;;;;;;30.58;6.25;;;;;;;16.38;100.00;100253.44;5070185;28;20040;-66
2023/09/26 09:54:17;;;;;;;21.35;5.55;;;;;;;16.32;100.00;100258.22;5076958;28;20412;-66
2023/09/26 09:56:49;;;;;;;21.60;5.60;;;;;;;16.69;100.00;100250.31;5063002;28;20048;-66
2023/09/26 09:59:18;;;;;;;18.80;5.38;;;;;;;16.76;100.00;100244.63;5058270;28;20558;-66
2023/09/26 10:01:49;;;;;;;27.05;6.03;;;;;;;16.39;100.00;100245.41;5069854;28;20051;-66
2023/09/26 10:04:18;;;;;;;32.10;6.38;;;;;;;16.51;100.00;100246.34;5069265;28;20053;-66
2023/09/26 10:06:45;;;;;;;27.23;7.00;;;;;;;16.39;100.00;100229.56;5055190;28;20048;-66
2023/09/26 10:09:16;;;;;;;18.95;5.47;;;;;;;16.66;100.00;100225.91;5058079;28;20394;-66
2023/09/26 10:11:44;;;;;;;35.50;7.25;;;;;;;16.56;100.00;100224.91;5060244;28;20080;-66
2023/09/26 10:14:12;;;;;;;25.60;6.65;;;;;;;16.60;100.00;100239.56;5052250;28;20140;-66
2023/09/26 10:16:39;;;;;;;30.33;6.50;;;;;;;16.28;100.00;100235.59;5054735;28;20052;-66
2023/09/26 10:19:07;;;;;;;30.73;6.13;;;;;;;16.36;100.00;100232.44;5061078;28;20111;-66
2023/09/26 10:21:35;;;;;;;30.98;6.78;;;;;;;16.36;100.00;100228.91;5066073;28;20310;-67
2023/09/26 10:24:05;;;;;;;33.45;7.63;;;;;;;16.29;100.00;100239.94;5072044;28;20098;-66
2023/09/26 10:26:33;;;;;;;28.23;5.57;;;;;;;16.49;100.00;100233.25;5068236;28;20111;-66
2023/09/26 10:29:06;;;;;;;27.63;6.05;;;;;;;16.97;100.00;100229.88;5069950;28;20767;-66
2023/09/26 10:31:33;;;;;;;28.23;6.75;;;;;;;17.03;100.00;100221.53;5066174;28;20478;-66
2023/09/26 10:34:01;;;;;;;33.13;6.40;;;;;;;17.18;100.00;100208.97;5058212;28;20139;-66
2023/09/26 10:36:31;;;;;;;28.17;6.85;;;;;;;17.14;100.00;100204.84;5064631;28;20063;-66
2023/09/26 10:39:05;;;;;;;22.27;5.65;;;;;;;17.17;100.00;100198.47;5066682;28;20383;-66
2023/09/26 10:41:32;;;;;;;23.30;6.25;;;;;;;17.37;100.00;100202.28;5065537;28;20204;-66
2023/09/26 10:44:19;;;;;;;24.13;5.65;;;;;;;17.12;100.00;100187.41;5060537;28;20536;-66
2023/09/26 10:46:46;;;;;;;16.95;4.85;;;;;;;17.53;100.00;100178.16;5071798;28;20056;-66
2023/09/26 10:49:13;;;;;;;24.27;5.00;;;;;;;17.73;100.00;100174.03;5066007;28;20461;-66
2023/09/26 10:51:39;;;;;;;22.50;5.50;;;;;;;17.83;100.00;100170.53;5055316;28;20049;-66
2023/09/26 10:54:06;;;;;;;16.00;4.28;;;;;;;18.17;100.00;100148.56;5070507;28;20052;-66
2023/09/26 10:56:33;;;;;;;26.52;6.70;;;;;;;18.00;100.00;100141.94;5058897;28;20056;-66
2023/09/26 10:58:59;;;;;;;26.40;5.38;;;;;;;17.74;100.00;100152.72;5059014;28;20395;-66
2023/09/26 11:01:37;;;;;;;24.92;5.30;;;;;;;17.65;100.00;100154.28;5055976;28;20352;-66
2023/09/26 11:04:06;;;;;;;26.30;5.72;;;;;;;17.64;100.00;100146.44;5055674;28;20045;-67
2023/09/26 11:06:53;;;;;;;24.42;5.50;;;;;;;17.39;100.00;100156.25;5054713;28;20105;-66
2023/09/26 11:09:20;;;;;;;29.02;6.07;;;;;;;17.35;100.00;100173.31;5055676;28;20080;-66
2023/09/26 11:11:47;;;;;;;24.83;5.90;;;;;;;16.99;100.00;100183.00;5058410;28;20056;-67
2023/09/26 11:14:15;;;;;;;28.90;5.85;;;;;;;16.73;100.00;100169.00;5049109;28;20445;-66
2023/09/26 11:16:42;;;;;;;23.98;6.50;;;;;;;16.63;100.00;100170.66;5065246;28;20186;-66